Time;durP1;ratioP1;P1;durP2;ratioP2;P2;SDS_P1;SDS_P2;PMS_P1;PMS_P2;Temp;Humidity;BMP_temperature;BMP_pressure;BME280_temperature;BME280_humidity;BME280_pressure;Samples;Min_cycle;Max_cycle;Signal;HPM_P1;HPM_P2
2023/05/23 00:00:23;;;;;;;46.80;21.25;;;15.20;99.90;;;;;;5051078;28;20134;-62
2023/05/23 00:02:49;;;;;;;42.17;21.58;;;15.10;99.90;;;;;;5050271;28;20045;-62
2023/05/23 00:05:16;;;;;;;44.33;22.60;;;15.00;99.90;;;;;;5049810;28;20115;-61
2023/05/23 00:07:43;;;;;;;44.90;21.08;;;15.10;99.90;;;;;;5051349;28;20086;-61
2023/05/23 00:10:10;;;;;;;43.55;21.83;;;15.10;99.90;;;;;;5048120;28;20518;-62
2023/05/23 00:12:38;;;;;;;43.75;22.05;;;15.10;99.90;;;;;;5051656;28;20077;-62
2023/05/23 00:15:08;;;;;;;45.35;20.52;;;15.00;99.90;;;;;;5051848;28;20044;-62
2023/05/23 00:17:36;;;;;;;46.50;21.73;;;15.00;99.90;;;;;;5050856;28;20123;-62
2023/05/23 00:20:02;;;;;;;39.30;20.67;;;14.90;99.90;;;;;;5050112;28;20159;-62
2023/05/23 00:22:28;;;;;;;41.40;20.10;;;14.90;99.90;;;;;;5051051;28;20041;-62
2023/05/23 00:24:56;;;;;;;38.33;18.48;;;14.90;99.90;;;;;;5051846;28;20075;-63
2023/05/23 00:27:22;;;;;;;29.70;16.30;;;15.00;99.90;;;;;;5049019;28;20548;-62
2023/05/23 00:29:48;;;;;;;29.50;16.27;;;14.90;99.90;;;;;;5051176;28;20073;-62
2023/05/23 00:32:13;;;;;;;31.50;15.23;;;14.80;99.90;;;;;;5047212;28;20076;-62
2023/05/23 00:34:39;;;;;;;26.60;15.27;;;14.90;99.90;;;;;;5049586;28;20039;-62
2023/05/23 00:37:05;;;;;;;27.38;15.15;;;15.00;99.90;;;;;;5049855;28;20449;-62
2023/05/23 00:39:31;;;;;;;26.17;15.48;;;14.90;99.90;;;;;;5050364;28;20640;-61
2023/05/23 00:41:56;;;;;;;24.00;13.95;;;14.80;99.90;;;;;;5050168;28;20414;-61
2023/05/23 00:44:22;;;;;;;27.23;15.25;;;14.80;99.90;;;;;;5051125;28;20452;-61
2023/05/23 00:46:52;;;;;;;27.88;15.65;;;14.80;99.90;;;;;;5049212;28;20033;-61
2023/05/23 00:49:19;;;;;;;27.20;14.07;;;14.70;99.90;;;;;;5041712;28;20091;-61
2023/05/23 00:51:45;;;;;;;25.77;13.65;;;14.70;99.90;;;;;;5049230;28;20041;-62
2023/05/23 00:54:12;;;;;;;18.77;12.73;;;14.70;99.90;;;;;;5050325;28;20029;-61
2023/05/23 00:56:38;;;;;;;20.88;14.20;;;14.70;99.90;;;;;;5050218;28;20037;-62
2023/05/23 00:59:05;;;;;;;20.55;14.07;;;14.60;99.90;;;;;;5051569;28;20056;-62
2023/05/23 01:01:32;;;;;;;22.70;13.90;;;14.70;99.90;;;;;;5050009;28;20082;-61
2023/05/23 01:03:58;;;;;;;21.08;12.75;;;14.70;99.90;;;;;;5050983;28;20138;-62
2023/05/23 01:06:23;;;;;;;18.30;12.70;;;14.70;99.90;;;;;;5051073;28;20501;-61
2023/05/23 01:08:49;;;;;;;19.67;12.50;;;14.70;99.90;;;;;;5051391;28;20064;-61
2023/05/23 01:11:34;;;;;;;21.08;12.48;;;14.60;99.90;;;;;;5050652;28;20041;-61
2023/05/23 01:14:31;;;;;;;18.40;12.80;;;14.70;99.90;;;;;;5050400;28;20521;-61
2023/05/23 01:17:08;;;;;;;19.73;12.07;;;14.70;99.90;;;;;;5053187;28;20041;-62
2023/05/23 01:19:57;;;;;;;18.77;12.93;;;14.60;99.90;;;;;;5054845;28;20121;-62
2023/05/23 01:22:49;;;;;;;19.25;12.38;;;14.60;99.90;;;;;;5052790;28;20037;-62
2023/05/23 01:25:35;;;;;;;16.45;12.13;;;14.60;99.90;;;;;;5049202;28;20040;-62
2023/05/23 01:28:04;;;;;;;20.30;13.07;;;14.60;99.90;;;;;;5055188;28;20072;-61
2023/05/23 01:30:31;;;;;;;18.30;12.63;;;14.60;99.90;;;;;;5053226;28;20041;-61
2023/05/23 01:32:58;;;;;;;18.40;12.90;;;14.60;99.90;;;;;;5054761;28;20041;-62
2023/05/23 01:35:27;;;;;;;15.40;11.57;;;14.60;99.90;;;;;;5054276;28;20068;-62
2023/05/23 01:37:54;;;;;;;18.52;11.50;;;14.60;99.90;;;;;;5054979;28;20087;-62
2023/05/23 01:40:21;;;;;;;21.38;13.30;;;14.60;99.90;;;;;;5052767;28;20041;-62
2023/05/23 01:42:47;;;;;;;21.23;13.68;;;14.60;99.90;;;;;;5052652;28;20453;-61
2023/05/23 01:45:13;;;;;;;23.48;13.90;;;14.60;99.90;;;;;;5046900;28;20110;-61
2023/05/23 01:47:40;;;;;;;24.95;15.98;;;14.60;99.90;;;;;;5053647;28;20087;-62
2023/05/23 01:50:08;;;;;;;27.20;16.73;;;14.60;99.90;;;;;;5054793;28;20037;-61
2023/05/23 01:52:34;;;;;;;28.67;18.33;;;14.50;99.90;;;;;;5050940;28;20041;-61
2023/05/23 01:55:00;;;;;;;27.70;17.70;;;14.60;99.90;;;;;;5053816;28;20032;-62
2023/05/23 01:57:28;;;;;;;27.92;17.00;;;14.50;99.90;;;;;;5051835;28;20052;-62
2023/05/23 01:59:54;;;;;;;25.95;17.08;;;14.50;99.90;;;;;;5053071;28;20041;-61
2023/05/23 02:02:21;;;;;;;24.85;16.48;;;14.40;99.90;;;;;;5051136;28;20044;-62
2023/05/23 02:04:48;;;;;;;25.65;16.48;;;14.40;99.90;;;;;;5053472;28;20060;-62
2023/05/23 02:07:14;;;;;;;26.42;14.85;;;14.40;99.90;;;;;;5049115;28;20033;-61
2023/05/23 02:09:39;;;;;;;26.40;15.95;;;14.30;99.90;;;;;;5052459;28;20052;-61
2023/05/23 02:12:05;;;;;;;22.98;14.52;;;14.30;99.90;;;;;;5052190;28;20402;-61
2023/05/23 02:14:31;;;;;;;24.40;13.80;;;14.30;99.90;;;;;;5049894;28;20110;-62
2023/05/23 02:16:56;;;;;;;22.00;13.25;;;14.20;99.90;;;;;;5049545;28;20092;-62
2023/05/23 02:19:22;;;;;;;19.35;12.45;;;14.20;99.90;;;;;;5050734;28;20043;-61
2023/05/23 02:21:47;;;;;;;19.67;12.48;;;14.20;99.90;;;;;;5054054;28;20041;-61
2023/05/23 02:24:13;;;;;;;19.67;12.27;;;14.20;99.90;;;;;;5032385;28;20044;-62
2023/05/23 02:26:38;;;;;;;17.63;11.85;;;14.20;99.90;;;;;;5048585;28;20053;-62
2023/05/23 02:29:04;;;;;;;18.25;11.55;;;14.20;99.90;;;;;;5053371;28;20048;-62
2023/05/23 02:31:30;;;;;;;21.02;11.93;;;14.10;99.90;;;;;;5053760;28;20539;-62
2023/05/23 02:33:55;;;;;;;20.08;11.38;;;14.10;99.90;;;;;;5053615;28;20040;-61
2023/05/23 02:36:21;;;;;;;20.63;11.88;;;14.10;99.90;;;;;;5048117;28;20116;-62
2023/05/23 02:38:47;;;;;;;21.05;11.73;;;14.10;99.90;;;;;;5053717;28;20111;-62
2023/05/23 02:41:12;;;;;;;20.95;11.65;;;14.00;99.90;;;;;;5052873;28;20103;-62
2023/05/23 02:43:38;;;;;;;20.42;10.63;;;14.00;99.90;;;;;;5050688;28;20029;-61
2023/05/23 02:46:04;;;;;;;22.90;11.70;;;14.10;99.90;;;;;;5052666;28;20106;-62
2023/05/23 02:48:29;;;;;;;25.63;11.50;;;14.00;99.90;;;;;;5053760;28;20036;-61
2023/05/23 02:50:55;;;;;;;23.73;11.27;;;14.00;99.90;;;;;;5049636;28;20128;-61
2023/05/23 02:53:21;;;;;;;23.52;11.70;;;13.90;99.90;;;;;;5047026;28;20399;-61
2023/05/23 02:55:47;;;;;;;25.05;11.65;;;14.00;99.90;;;;;;5053182;28;20170;-62
2023/05/23 02:58:12;;;;;;;25.27;11.27;;;13.90;99.90;;;;;;5050438;28;20546;-62
2023/05/23 03:00:38;;;;;;;19.08;10.10;;;13.90;99.90;;;;;;5053230;28;20067;-62
2023/05/23 03:03:04;;;;;;;22.48;10.23;;;13.80;99.90;;;;;;5053045;28;20037;-61
2023/05/23 03:05:29;;;;;;;22.30;9.80;;;13.70;99.90;;;;;;5050348;28;20409;-61
2023/05/23 03:07:56;;;;;;;19.95;9.50;;;13.70;99.90;;;;;;5051769;28;20134;-61
2023/05/23 03:10:22;;;;;;;17.13;8.82;;;13.70;99.90;;;;;;5042527;28;20049;-61
2023/05/23 03:12:47;;;;;;;17.92;8.80;;;13.70;99.90;;;;;;5048602;28;20371;-62
2023/05/23 03:15:13;;;;;;;19.00;8.13;;;13.70;99.90;;;;;;5052103;28;20047;-61
2023/05/23 03:17:38;;;;;;;16.60;8.35;;;13.60;99.90;;;;;;5047547;28;20116;-61
2023/05/23 03:20:08;;;;;;;17.35;9.00;;;13.70;99.90;;;;;;5051142;28;21111;-61
2023/05/23 03:22:34;;;;;;;17.35;9.10;;;13.60;99.90;;;;;;5050422;28;20040;-61
2023/05/23 03:25:00;;;;;;;16.23;7.88;;;13.60;99.90;;;;;;5045784;28;20029;-61
2023/05/23 03:27:25;;;;;;;13.77;6.72;;;13.60;99.90;;;;;;5052604;28;20053;-61
2023/05/23 03:29:51;;;;;;;14.77;7.03;;;13.60;99.90;;;;;;5046288;28;20032;-61
2023/05/23 03:32:16;;;;;;;16.92;7.60;;;13.50;99.90;;;;;;5048876;28;20044;-61
2023/05/23 03:34:42;;;;;;;18.15;8.00;;;13.50;99.90;;;;;;5051917;28;20044;-61
2023/05/23 03:37:08;;;;;;;18.58;8.30;;;13.50;99.90;;;;;;5050959;28;20048;-61
2023/05/23 03:39:33;;;;;;;16.90;8.40;;;13.50;99.90;;;;;;5048266;28;20037;-62
2023/05/23 03:41:59;;;;;;;22.90;8.50;;;13.40;99.90;;;;;;5052003;28;20039;-62
2023/05/23 03:44:24;;;;;;;23.30;8.90;;;13.40;99.90;;;;;;5047360;28;20037;-61
2023/05/23 03:46:50;;;;;;;17.38;8.02;;;13.30;99.90;;;;;;5048205;28;20567;-61
2023/05/23 03:49:16;;;;;;;23.23;8.60;;;13.40;99.90;;;;;;5050704;28;20033;-61
2023/05/23 03:51:41;;;;;;;16.55;8.73;;;13.30;99.90;;;;;;5048434;28;20029;-61
2023/05/23 03:54:07;;;;;;;15.38;7.57;;;13.30;99.90;;;;;;5040019;28;20120;-61
2023/05/23 03:56:32;;;;;;;25.17;9.15;;;13.30;99.90;;;;;;5047466;28;20483;-61
2023/05/23 03:58:58;;;;;;;22.85;8.90;;;13.30;99.90;;;;;;5047524;28;20064;-61
2023/05/23 04:01:23;;;;;;;19.67;8.55;;;13.30;99.90;;;;;;5046067;28;20037;-61
2023/05/23 04:03:50;;;;;;;24.55;9.27;;;13.20;99.90;;;;;;5035521;28;20037;-61
2023/05/23 04:06:16;;;;;;;22.13;8.13;;;13.20;99.90;;;;;;5050396;28;20033;-61
2023/05/23 04:08:42;;;;;;;22.50;9.02;;;13.20;99.90;;;;;;5051833;28;20029;-60
2023/05/23 04:11:08;;;;;;;18.80;8.35;;;13.20;99.90;;;;;;5051240;28;20452;-61
2023/05/23 04:13:34;;;;;;;24.25;8.10;;;13.10;99.90;;;;;;5050577;28;20045;-61
2023/05/23 04:16:03;;;;;;;26.83;8.80;;;13.10;99.90;;;;;;5051019;28;20045;-61
2023/05/23 04:18:32;;;;;;;22.15;8.85;;;13.20;99.90;;;;;;5049047;28;20489;-61
2023/05/23 04:20:58;;;;;;;19.10;8.48;;;13.10;99.90;;;;;;5047698;28;20051;-61
2023/05/23 04:23:23;;;;;;;19.02;7.63;;;13.10;99.90;;;;;;5044588;28;20025;-60
2023/05/23 04:25:50;;;;;;;21.10;8.20;;;13.20;99.90;;;;;;5047480;28;20530;-61
2023/05/23 04:28:16;;;;;;;19.05;7.60;;;13.10;99.90;;;;;;5039287;28;20044;-61
2023/05/23 04:30:42;;;;;;;21.38;7.70;;;13.10;99.90;;;;;;5034954;28;20051;-61
2023/05/23 04:33:09;;;;;;;19.35;7.38;;;13.10;99.90;;;;;;5046795;28;20120;-61
2023/05/23 04:35:37;;;;;;;16.63;6.80;;;13.10;99.90;;;;;;5041533;28;20034;-60
2023/05/23 04:38:03;;;;;;;16.75;7.28;;;13.00;99.90;;;;;;5049777;28;20048;-61
2023/05/23 04:40:30;;;;;;;16.75;6.57;;;13.00;99.90;;;;;;5051168;28;20037;-61
2023/05/23 04:42:56;;;;;;;13.98;6.63;;;13.00;99.90;;;;;;5047717;28;20040;-61
2023/05/23 04:45:22;;;;;;;19.17;6.93;;;12.90;99.90;;;;;;5049804;28;20048;-61
2023/05/23 04:47:47;;;;;;;16.95;7.03;;;12.90;99.90;;;;;;5048209;28;20029;-61
2023/05/23 04:50:13;;;;;;;16.90;6.70;;;12.90;99.90;;;;;;5049180;28;20143;-61
2023/05/23 04:52:40;;;;;;;17.33;6.63;;;13.00;99.90;;;;;;5047340;28;20391;-61
2023/05/23 04:55:07;;;;;;;13.05;5.93;;;13.00;99.90;;;;;;5048950;28;20037;-61
2023/05/23 04:57:33;;;;;;;16.17;7.00;;;13.00;99.90;;;;;;5050453;28;20372;-61
2023/05/23 04:59:59;;;;;;;15.40;6.25;;;13.00;99.90;;;;;;5041677;28;20029;-61
2023/05/23 05:02:26;;;;;;;18.25;6.80;;;12.90;99.90;;;;;;5033020;28;20057;-61
2023/05/23 05:04:52;;;;;;;16.30;6.85;;;12.90;99.90;;;;;;5045757;28;20037;-61
2023/05/23 05:07:17;;;;;;;15.48;6.53;;;12.90;99.90;;;;;;5046518;28;20044;-61
2023/05/23 05:09:43;;;;;;;14.70;6.10;;;12.80;99.90;;;;;;5049837;28;20082;-61
2023/05/23 05:12:09;;;;;;;11.63;5.75;;;12.80;99.90;;;;;;5050434;28;20039;-61
2023/05/23 05:14:34;;;;;;;17.13;6.57;;;12.80;99.90;;;;;;5050390;28;20033;-61
2023/05/23 05:17:01;;;;;;;11.93;5.97;;;12.80;99.90;;;;;;5049237;28;20041;-61
2023/05/23 05:19:27;;;;;;;15.20;5.78;;;12.80;99.90;;;;;;5050570;28;20041;-61
2023/05/23 05:21:52;;;;;;;14.93;6.55;;;12.80;99.90;;;;;;5050261;28;20067;-60
2023/05/23 05:24:19;;;;;;;13.50;6.53;;;12.70;99.90;;;;;;5048549;28;20033;-61
2023/05/23 05:26:46;;;;;;;15.52;6.18;;;12.80;99.90;;;;;;5048219;28;20041;-61
2023/05/23 05:29:12;;;;;;;15.60;5.75;;;12.70;99.90;;;;;;5049948;28;20064;-61
2023/05/23 05:31:37;;;;;;;14.02;6.00;;;12.70;99.90;;;;;;5051261;28;20119;-62
2023/05/23 05:34:03;;;;;;;16.92;5.45;;;12.70;99.90;;;;;;5049545;28;20041;-61
2023/05/23 05:36:30;;;;;;;13.85;6.05;;;12.70;99.90;;;;;;5048661;28;20143;-61
2023/05/23 05:38:56;;;;;;;17.05;6.28;;;12.60;99.90;;;;;;5048955;28;20037;-61
2023/05/23 05:41:22;;;;;;;13.32;5.07;;;12.60;99.90;;;;;;5051232;28;20045;-61
2023/05/23 05:43:47;;;;;;;12.65;4.90;;;12.60;99.90;;;;;;5050931;28;20037;-61
2023/05/23 05:46:13;;;;;;;14.77;5.40;;;12.60;99.90;;;;;;5050526;28;20033;-61
2023/05/23 05:48:38;;;;;;;16.05;6.03;;;12.60;99.90;;;;;;5050961;28;20063;-61
2023/05/23 05:51:04;;;;;;;16.33;6.55;;;12.50;99.90;;;;;;5049115;28;20033;-61
2023/05/23 05:53:30;;;;;;;16.35;6.60;;;12.50;99.90;;;;;;5043990;28;20044;-61
2023/05/23 05:55:55;;;;;;;15.55;6.80;;;12.40;99.90;;;;;;5048233;28;20040;-61
2023/05/23 05:58:21;;;;;;;18.85;6.90;;;12.40;99.90;;;;;;5049524;28;20033;-61
2023/05/23 06:00:47;;;;;;;16.10;6.93;;;12.40;99.90;;;;;;5043901;28;20136;-61
2023/05/23 06:03:14;;;;;;;14.45;6.13;;;12.30;99.90;;;;;;5050906;28;20133;-61
2023/05/23 06:05:40;;;;;;;15.40;6.90;;;12.30;99.90;;;;;;5042722;28;20052;-61
2023/05/23 06:08:06;;;;;;;23.42;6.90;;;12.30;99.90;;;;;;5045683;28;20040;-61
2023/05/23 06:10:32;;;;;;;18.58;7.03;;;12.30;99.90;;;;;;5052626;28;20070;-61
2023/05/23 06:12:58;;;;;;;19.83;7.40;;;12.20;99.90;;;;;;5051520;28;20123;-62
2023/05/23 06:15:24;;;;;;;20.23;8.55;;;12.20;99.90;;;;;;5050492;28;20029;-61
2023/05/23 06:17:50;;;;;;;18.80;7.70;;;12.20;99.90;;;;;;5053343;28;20055;-61
2023/05/23 06:20:16;;;;;;;18.70;7.57;;;12.20;99.90;;;;;;5054130;28;20123;-61
2023/05/23 06:22:41;;;;;;;13.85;5.95;;;12.10;99.90;;;;;;5050216;28;20041;-60
2023/05/23 06:25:07;;;;;;;13.20;5.93;;;12.10;99.90;;;;;;5052708;28;20040;-61
2023/05/23 06:27:33;;;;;;;18.25;5.90;;;12.00;99.90;;;;;;5052961;28;20383;-61
2023/05/23 06:29:58;;;;;;;17.48;6.07;;;12.00;99.90;;;;;;5052057;28;20040;-61
2023/05/23 06:32:24;;;;;;;18.08;7.10;;;11.90;99.90;;;;;;5051904;28;20045;-61
2023/05/23 06:34:49;;;;;;;18.77;6.80;;;12.00;99.90;;;;;;5051904;28;20059;-61
2023/05/23 06:37:16;;;;;;;20.92;6.53;;;12.00;99.90;;;;;;5047249;28;20666;-61
2023/05/23 06:39:42;;;;;;;18.17;7.55;;;12.00;99.90;;;;;;5051603;28;20041;-61
2023/05/23 06:42:08;;;;;;;18.83;6.25;;;12.00;99.90;;;;;;5053975;28;20120;-61
2023/05/23 06:44:33;;;;;;;17.88;6.15;;;12.10;99.90;;;;;;5053441;28;20441;-61
2023/05/23 06:46:59;;;;;;;15.35;5.75;;;12.10;99.90;;;;;;5053823;28;20041;-61
2023/05/23 06:49:25;;;;;;;14.73;5.10;;;12.10;99.90;;;;;;5053642;28;20562;-61
2023/05/23 06:51:51;;;;;;;16.38;5.28;;;12.10;99.90;;;;;;5050602;28;20112;-61
2023/05/23 06:54:17;;;;;;;15.13;6.35;;;12.10;99.90;;;;;;5053382;28;20040;-61
2023/05/23 06:56:43;;;;;;;14.88;5.60;;;12.10;99.90;;;;;;5052168;28;20052;-61
2023/05/23 06:59:09;;;;;;;16.30;5.95;;;12.10;99.90;;;;;;5053597;28;20037;-61
2023/05/23 07:01:35;;;;;;;15.73;5.88;;;12.10;99.90;;;;;;5053514;28;20055;-61
2023/05/23 07:04:00;;;;;;;12.93;5.32;;;12.00;99.90;;;;;;5053261;28;20399;-61
2023/05/23 07:06:30;;;;;;;16.05;5.07;;;12.10;99.90;;;;;;5047031;28;20064;-61
2023/05/23 07:08:55;;;;;;;16.13;5.47;;;12.10;99.90;;;;;;5050708;28;20041;-61
2023/05/23 07:11:21;;;;;;;14.77;4.85;;;12.10;99.90;;;;;;5052812;28;20033;-61
2023/05/23 07:13:47;;;;;;;14.48;4.82;;;12.10;99.90;;;;;;5052615;28;20044;-62
2023/05/23 07:16:12;;;;;;;14.50;4.60;;;12.10;99.90;;;;;;5053080;28;20036;-61
2023/05/23 07:18:38;;;;;;;11.55;4.63;;;12.10;99.90;;;;;;5052978;28;20037;-62
2023/05/23 07:21:04;;;;;;;13.93;3.95;;;12.10;99.90;;;;;;5051249;28;20127;-61
2023/05/23 07:23:34;;;;;;;13.55;4.13;;;12.00;99.90;;;;;;5052641;28;20437;-61
2023/05/23 07:26:01;;;;;;;11.10;4.38;;;12.00;99.90;;;;;;5053053;28;20116;-61
2023/05/23 07:28:27;;;;;;;12.63;4.03;;;12.00;99.90;;;;;;5053109;28;20045;-61
2023/05/23 07:30:53;;;;;;;17.70;4.32;;;12.10;99.90;;;;;;5052791;28;20118;-61
2023/05/23 07:33:18;;;;;;;15.50;4.03;;;12.10;99.90;;;;;;5052488;28;20124;-61
2023/05/23 07:35:44;;;;;;;13.88;3.78;;;12.10;99.90;;;;;;5051956;28;20041;-61
2023/05/23 07:38:10;;;;;;;18.10;4.32;;;12.10;99.90;;;;;;5051376;28;20028;-61
2023/05/23 07:40:37;;;;;;;13.00;3.60;;;12.10;99.90;;;;;;5064386;22;20041;-65
2023/05/23 07:43:03;;;;;;;13.95;3.97;;;12.10;99.90;;;;;;5049056;28;20520;-65
2023/05/23 07:45:28;;;;;;;15.93;4.07;;;12.10;99.90;;;;;;5045337;28;20037;-65
2023/05/23 07:47:54;;;;;;;16.58;4.28;;;12.20;99.90;;;;;;5051483;28;20040;-65
2023/05/23 07:50:20;;;;;;;13.25;3.50;;;12.30;99.90;;;;;;5051293;28;20052;-65
2023/05/23 07:52:46;;;;;;;13.57;4.07;;;12.40;99.90;;;;;;5048760;28;20403;-66
2023/05/23 07:55:11;;;;;;;15.88;3.90;;;12.40;99.90;;;;;;5039279;28;20038;-65
2023/05/23 07:57:37;;;;;;;13.20;3.78;;;12.50;99.90;;;;;;5047383;28;20037;-64
2023/05/23 08:00:04;;;;;;;9.07;3.70;;;12.60;99.90;;;;;;5031026;28;20045;-65
2023/05/23 08:02:30;;;;;;;14.48;4.20;;;12.50;99.90;;;;;;5032542;28;20029;-65
2023/05/23 08:04:55;;;;;;;21.73;4.25;;;12.40;99.90;;;;;;5031962;28;20048;-65
2023/05/23 08:07:21;;;;;;;14.02;3.63;;;12.40;99.90;;;;;;5030796;28;20041;-65
2023/05/23 08:09:47;;;;;;;19.77;4.20;;;12.40;99.90;;;;;;5030137;28;20042;-65
2023/05/23 08:12:13;;;;;;;18.23;4.20;;;12.30;99.90;;;;;;5045929;28;20037;-65
2023/05/23 08:14:38;;;;;;;17.85;5.18;;;12.30;99.90;;;;;;5031397;28;20452;-65
2023/05/23 08:17:04;;;;;;;19.20;3.97;;;12.30;99.90;;;;;;5030580;28;20041;-65
2023/05/23 08:19:29;;;;;;;15.43;3.75;;;12.30;99.90;;;;;;5039671;28;20033;-65
2023/05/23 08:21:55;;;;;;;16.63;4.28;;;12.30;99.90;;;;;;5049501;28;20035;-65
2023/05/23 08:24:21;;;;;;;23.85;4.80;;;12.30;99.90;;;;;;5051337;28;20047;-65
2023/05/23 08:26:46;;;;;;;22.40;3.92;;;12.40;99.90;;;;;;5023015;28;20460;-65
2023/05/23 08:29:13;;;;;;;20.45;4.28;;;12.40;99.90;;;;;;5051509;28;20074;-65
2023/05/23 08:31:39;;;;;;;15.50;3.95;;;12.50;99.90;;;;;;5050189;28;20041;-65
2023/05/23 08:34:04;;;;;;;16.33;3.80;;;12.50;99.90;;;;;;5051863;28;20097;-65
2023/05/23 08:36:36;;;;;;;15.80;3.45;;;12.70;99.90;;;;;;5041994;28;20084;-65
2023/05/23 08:39:02;;;;;;;23.10;4.20;;;12.80;99.90;;;;;;5049122;28;20032;-65
2023/05/23 08:41:29;;;;;;;17.55;4.22;;;13.00;99.90;;;;;;5050903;28;20090;-65
2023/05/23 08:43:54;;;;;;;17.15;4.82;;;13.00;99.90;;;;;;5051777;28;20091;-65
2023/05/23 08:46:21;;;;;;;14.05;3.40;;;13.10;99.90;;;;;;5051937;28;20509;-65
2023/05/23 08:48:53;;;;;;;15.82;4.25;;;13.20;99.90;;;;;;5043081;28;20045;-65
2023/05/23 08:51:21;;;;;;;18.65;4.70;;;13.30;99.90;;;;;;5032349;28;20063;-65
2023/05/23 08:53:47;;;;;;;16.77;3.35;;;13.30;99.90;;;;;;5018070;28;20046;-66
2023/05/23 08:56:14;;;;;;;14.20;3.47;;;13.30;99.90;;;;;;5012321;28;20042;-65
2023/05/23 08:58:42;;;;;;;15.93;3.67;;;13.20;99.90;;;;;;5012241;28;20116;-65
2023/05/23 09:01:09;;;;;;;16.73;3.78;;;13.20;99.90;;;;;;5012073;28;20376;-65
2023/05/23 09:03:38;;;;;;;16.60;3.47;;;13.30;99.90;;;;;;5034909;28;20513;-66
2023/05/23 09:06:08;;;;;;;11.60;2.85;;;13.50;99.90;;;;;;5050193;28;20037;-65
2023/05/23 09:08:35;;;;;;;13.82;3.58;;;13.50;99.90;;;;;;5051471;28;20555;-65
2023/05/23 09:11:04;;;;;;;14.93;3.83;;;13.50;99.90;;;;;;5051588;28;20049;-65
2023/05/23 09:13:31;;;;;;;9.93;2.80;;;13.60;99.90;;;;;;5038663;28;20042;-65
2023/05/23 09:16:01;;;;;;;17.60;4.25;;;13.50;99.90;;;;;;5031991;28;20037;-66
2023/05/23 09:18:35;;;;;;;16.15;4.07;;;13.50;99.90;;;;;;5043162;28;20402;-66
2023/05/23 09:21:01;;;;;;;14.55;3.70;;;13.60;99.90;;;;;;5051194;28;20051;-66
2023/05/23 09:23:31;;;;;;;15.85;3.55;;;13.70;99.90;;;;;;5051242;28;20569;-65
2023/05/23 09:26:01;;;;;;;17.48;4.22;;;13.70;99.90;;;;;;5050321;28;20032;-66
2023/05/23 09:28:27;;;;;;;10.77;2.97;;;13.70;99.90;;;;;;5051323;28;20506;-65
2023/05/23 09:31:00;;;;;;;17.55;3.70;;;13.70;99.90;;;;;;5040557;28;20072;-65
2023/05/23 09:33:47;;;;;;;17.70;3.85;;;13.80;99.90;;;;;;5038548;28;20488;-65
2023/05/23 09:36:13;;;;;;;15.40;3.40;;;13.80;99.90;;;;;;5032000;28;20045;-65
2023/05/23 09:38:40;;;;;;;17.17;4.22;;;13.90;99.90;;;;;;5034794;28;20046;-65
2023/05/23 09:41:06;;;;;;;16.50;3.90;;;14.00;99.90;;;;;;5033618;28;20033;-65
2023/05/23 09:43:32;;;;;;;14.30;3.75;;;13.90;99.90;;;;;;5039882;28;20045;-65
2023/05/23 09:46:08;;;;;;;13.32;3.67;;;13.90;99.90;;;;;;5046137;28;20033;-65
2023/05/23 09:48:34;;;;;;;12.77;3.50;;;13.80;99.90;;;;;;5053308;28;20123;-65
2023/05/23 09:51:09;;;;;;;17.30;3.67;;;13.70;99.90;;;;;;5044582;28;20053;-65
2023/05/23 09:53:35;;;;;;;13.68;3.17;;;13.80;99.90;;;;;;5043832;28;20043;-65
2023/05/23 09:56:05;;;;;;;13.90;3.78;;;13.80;99.90;;;;;;5032360;28;20120;-65
2023/05/23 09:58:33;;;;;;;14.43;4.20;;;13.80;99.90;;;;;;5042624;28;20037;-65
2023/05/23 10:01:02;;;;;;;17.25;3.63;;;13.90;99.90;;;;;;5052676;28;20036;-65
2023/05/23 10:03:58;;;;;;;17.88;4.00;;;14.10;99.90;;;;;;5054693;28;20037;-65
2023/05/23 10:06:33;;;;;;;9.98;2.95;;;14.40;99.90;;;;;;5051858;28;20045;-65
2023/05/23 10:09:08;;;;;;;11.82;3.67;;;14.40;99.90;;;;;;5049518;28;20124;-65
2023/05/23 10:11:34;;;;;;;11.48;3.55;;;14.30;99.90;;;;;;5046252;28;20033;-65
2023/05/23 10:14:06;;;;;;;9.95;3.42;;;14.40;99.90;;;;;;5054397;28;20092;-66
2023/05/23 10:16:41;;;;;;;12.95;3.03;;;14.40;99.90;;;;;;5035557;28;20041;-65
2023/05/23 10:19:19;;;;;;;21.40;4.00;;;14.50;99.90;;;;;;5029432;28;20406;-66
2023/05/23 10:21:50;;;;;;;15.85;3.38;;;14.50;99.90;;;;;;5024766;28;20037;-67
2023/05/23 10:24:16;;;;;;;11.55;3.25;;;14.70;99.90;;;;;;5036885;28;20029;-66
2023/05/23 10:26:43;;;;;;;13.82;3.30;;;14.80;99.90;;;;;;5037192;28;20037;-66
2023/05/23 10:29:09;;;;;;;14.98;3.80;;;14.90;99.90;;;;;;5035824;28;20087;-66
2023/05/23 10:31:35;;;;;;;14.43;3.78;;;15.00;99.90;;;;;;5042363;28;20032;-66
2023/05/23 10:34:10;;;;;;;15.35;3.60;;;15.00;99.90;;;;;;5031377;28;20042;-65
2023/05/23 10:37:01;;;;;;;14.10;3.53;;;14.80;99.90;;;;;;5028643;28;20069;-65
2023/05/23 10:39:53;;;;;;;10.15;3.50;;;14.80;99.90;;;;;;5024628;28;20054;-66
2023/05/23 10:42:48;;;;;;;10.88;3.08;;;14.70;99.90;;;;;;5032696;28;20092;-66
2023/05/23 10:45:15;;;;;;;12.77;3.28;;;14.70;99.90;;;;;;5024684;28;20039;-66
2023/05/23 10:47:41;;;;;;;14.63;3.35;;;14.70;99.90;;;;;;5031054;28;20044;-66
2023/05/23 10:50:10;;;;;;;11.05;2.72;;;14.90;99.90;;;;;;5025603;28;20049;-66
2023/05/23 10:52:40;;;;;;;13.50;3.20;;;14.80;99.90;;;;;;5031210;28;20041;-66
2023/05/23 10:55:16;;;;;;;13.65;2.88;;;14.80;99.90;;;;;;5026667;28;20065;-65
2023/05/23 10:57:43;;;;;;;13.55;3.13;;;14.70;99.90;;;;;;5040484;28;20484;-66
2023/05/23 11:00:13;;;;;;;11.38;3.00;;;14.90;99.90;;;;;;5031440;28;20070;-66
2023/05/23 11:02:53;;;;;;;14.82;3.50;;;15.00;99.90;;;;;;5030649;28;20041;-66
2023/05/23 11:05:23;;;;;;;12.00;3.25;;;15.00;99.90;;;;;;5038787;28;20046;-65
2023/05/23 11:08:10;;;;;;;18.67;3.67;;;14.80;99.90;;;;;;5026928;28;20045;-66
2023/05/23 11:11:00;;;;;;;12.93;2.67;;;14.80;99.90;;;;;;5033107;28;20406;-66
2023/05/23 11:14:01;;;;;;;16.27;3.53;;;15.00;99.90;;;;;;5021897;28;20061;-66
2023/05/23 11:16:30;;;;;;;;;;;15.00;99.90;;;;;;5031963;28;20040;-65
2023/05/23 11:19:17;;;;;;;10.00;3.03;;;14.90;99.90;;;;;;5027264;28;19928;-66
2023/05/23 11:21:44;;;;;;;9.50;2.65;;;14.80;99.90;;;;;;5032190;28;20037;-65
2023/05/23 11:24:10;;;;;;;10.52;3.83;;;14.80;99.90;;;;;;5027876;28;20075;-66
2023/05/23 11:26:35;;;;;;;8.55;2.15;;;14.90;99.90;;;;;;5030628;28;20034;-66
2023/05/23 11:29:04;;;;;;;8.93;2.50;;;14.90;99.90;;;;;;5023069;28;20026;-66
2023/05/23 11:31:35;;;;;;;12.93;3.10;;;14.90;99.90;;;;;;5036140;28;20403;-66
2023/05/23 11:34:01;;;;;;;11.90;2.75;;;14.80;99.90;;;;;;5030248;28;20129;-66
2023/05/23 11:36:27;;;;;;;15.63;3.15;;;14.70;99.90;;;;;;5029371;28;20037;-66
2023/05/23 11:38:54;;;;;;;16.25;3.22;;;14.60;99.90;;;;;;5029281;28;20044;-66
2023/05/23 11:41:20;;;;;;;11.73;2.50;;;14.50;99.90;;;;;;5038642;28;20032;-65
2023/05/23 11:43:50;;;;;;;13.82;2.80;;;14.70;99.90;;;;;;5039586;28;20112;-66
2023/05/23 11:46:16;;;;;;;13.73;3.35;;;14.90;99.90;;;;;;5031013;28;20033;-66
2023/05/23 11:48:45;;;;;;;11.48;2.92;;;14.90;99.90;;;;;;5031204;28;20542;-66
2023/05/23 11:51:11;;;;;;;12.18;2.80;;;15.00;99.90;;;;;;5029698;28;20107;-66
2023/05/23 11:53:37;;;;;;;10.70;3.00;;;15.00;99.90;;;;;;5027826;28;20041;-66
2023/05/23 11:56:03;;;;;;;14.20;3.05;;;15.00;99.90;;;;;;5036538;28;20118;-66
2023/05/23 11:58:38;;;;;;;14.38;2.92;;;15.10;99.90;;;;;;5033589;28;20434;-66
2023/05/23 12:01:09;;;;;;;10.93;2.70;;;15.10;99.90;;;;;;5028940;28;20487;-66
2023/05/23 12:03:45;;;;;;;12.20;2.70;;;15.00;99.90;;;;;;5030482;28;20045;-66
2023/05/23 12:06:13;;;;;;;10.02;2.67;;;15.00;99.90;;;;;;5037710;28;20078;-66
2023/05/23 12:08:39;;;;;;;12.23;2.83;;;14.90;99.90;;;;;;5034908;28;20053;-66
2023/05/23 12:11:05;;;;;;;17.27;2.55;;;14.90;99.90;;;;;;5030228;28;20045;-66
2023/05/23 12:13:31;;;;;;;11.23;2.58;;;15.00;99.90;;;;;;5030816;28;20076;-65
2023/05/23 12:15:59;;;;;;;10.63;2.65;;;14.90;99.90;;;;;;5035857;28;20080;-66
2023/05/23 12:18:30;;;;;;;10.80;2.60;;;14.80;99.90;;;;;;5050000;28;20064;-66
2023/05/23 12:21:01;;;;;;;8.82;2.42;;;14.70;99.90;;;;;;5033299;28;20052;-66
2023/05/23 12:23:28;;;;;;;9.13;2.50;;;14.60;99.90;;;;;;5031077;28;20037;-66
2023/05/23 12:25:55;;;;;;;13.45;2.92;;;14.80;99.90;;;;;;5028702;28;20034;-67
2023/05/23 12:28:32;;;;;;;11.75;2.60;;;14.90;99.90;;;;;;5032774;28;20535;-67
2023/05/23 12:30:58;;;;;;;13.65;3.13;;;14.80;99.90;;;;;;5022571;28;20077;-66
2023/05/23 12:33:24;;;;;;;11.35;2.92;;;14.70;99.90;;;;;;5041906;28;20454;-66
2023/05/23 12:35:50;;;;;;;9.30;2.50;;;14.60;99.90;;;;;;5032593;28;20041;-66
2023/05/23 12:38:16;;;;;;;12.73;2.63;;;14.60;99.90;;;;;;5025808;28;20042;-66